Time;durP1;ratioP1;P1;durP2;ratioP2;P2;SDS_P1;SDS_P2;PMS_P1;PMS_P2;Temp;Humidity;BMP_temperature;BMP_pressure;BME280_temperature;BME280_humidity;BME280_pressure;Samples;Min_cycle;Max_cycle;Signal;HPM_P1;HPM_P2
2021/11/18 00:00:34;;;;;;;21.95;9.10;;;;;;;7.64;92.21;98944.47;4987674;28;20058;-57
2021/11/18 00:03:00;;;;;;;23.90;12.40;;;;;;;7.12;94.70;98952.03;4988020;28;20021;-57
2021/11/18 00:05:26;;;;;;;36.28;18.20;;;;;;;7.10;93.92;98955.53;4989456;28;20567;-56
2021/11/18 00:07:53;;;;;;;26.17;14.63;;;;;;;7.35;90.73;98953.50;4989758;28;20104;-58
2021/11/18 00:10:20;;;;;;;30.98;14.35;;;;;;;7.33;91.33;98965.63;4989083;28;20026;-57
2021/11/18 00:12:46;;;;;;;23.50;12.10;;;;;;;6.98;94.22;98964.31;4986750;28;20029;-56
2021/11/18 00:15:14;;;;;;;24.33;12.25;;;;;;;7.42;92.21;98965.50;4988270;28;20022;-56
2021/11/18 00:17:39;;;;;;;29.83;11.85;;;;;;;7.19;93.15;98968.41;4994972;28;20049;-56
2021/11/18 00:20:08;;;;;;;16.45;8.43;;;;;;;7.37;95.46;98966.44;4989085;28;20036;-57
2021/11/18 00:22:34;;;;;;;23.30;10.23;;;;;;;7.38;91.76;98974.22;4989765;28;20373;-57
2021/11/18 00:25:00;;;;;;;22.95;12.32;;;;;;;7.39;91.42;98969.88;4989053;28;20496;-57
2021/11/18 00:27:27;;;;;;;26.98;12.50;;;;;;;7.27;94.08;98963.13;4986057;28;20053;-56
2021/11/18 00:29:52;;;;;;;16.63;7.78;;;;;;;7.52;98.46;98961.94;4988277;28;20030;-56
2021/11/18 00:32:18;;;;;;;22.20;8.05;;;;;;;7.55;100.00;98960.16;4990644;28;20041;-56
2021/11/18 00:34:43;;;;;;;35.67;13.98;;;;;;;7.13;100.00;98958.97;4989962;28;20034;-57
2021/11/18 00:37:09;;;;;;;26.73;11.57;;;;;;;6.95;100.00;98960.03;4989855;28;20039;-57
2021/11/18 00:39:34;;;;;;;25.83;11.90;;;;;;;7.06;100.00;98957.31;4987082;28;20018;-56
2021/11/18 00:42:00;;;;;;;22.67;11.63;;;;;;;6.61;100.00;98964.69;4990272;28;20033;-57
2021/11/18 00:44:25;;;;;;;26.42;10.77;;;;;;;7.42;100.00;98955.13;4991506;28;20712;-57
2021/11/18 00:46:50;;;;;;;23.30;11.15;;;;;;;7.19;100.00;98952.00;4989254;28;20034;-57
2021/11/18 00:49:16;;;;;;;29.85;12.95;;;;;;;7.23;97.97;98944.13;4989922;28;20105;-56
2021/11/18 00:51:42;;;;;;;26.55;12.35;;;;;;;6.97;98.80;98954.81;4989763;28;20088;-57
2021/11/18 00:54:08;;;;;;;23.75;11.30;;;;;;;7.23;99.90;98961.44;4990968;28;20072;-56
2021/11/18 00:56:34;;;;;;;20.25;10.23;;;;;;;7.27;96.08;98960.53;4990902;28;20069;-56
2021/11/18 00:59:00;;;;;;;25.65;11.40;;;;;;;7.17;97.34;98964.09;4993022;28;20054;-58
2021/11/18 01:01:32;;;;;;;24.90;11.63;;;;;;;7.47;94.69;98966.31;4989932;28;20145;-58
2021/11/18 01:03:58;;;;;;;24.40;11.07;;;;;;;7.53;93.36;98976.66;4988052;28;20092;-57
2021/11/18 01:06:23;;;;;;;26.50;12.30;;;;;;;7.45;93.33;98978.47;4989364;28;20089;-56
2021/11/18 01:08:49;;;;;;;26.95;11.88;;;;;;;7.59;98.34;98987.81;4989527;28;20022;-57
2021/11/18 01:11:24;;;;;;;24.75;11.65;;;;;;;7.33;93.75;98978.59;4989135;28;20058;-57
2021/11/18 01:13:52;;;;;;;24.52;8.38;;;;;;;7.78;95.77;98984.09;4990113;28;20037;-57
2021/11/18 01:16:22;;;;;;;35.08;12.63;;;;;;;7.16;94.54;98978.81;4988574;28;20053;-56
2021/11/18 01:18:48;;;;;;;20.08;9.82;;;;;;;7.63;95.14;98989.50;4995998;28;20034;-56
2021/11/18 01:21:14;;;;;;;10.85;5.70;;;;;;;7.99;96.76;98977.72;4989713;28;20061;-56
2021/11/18 01:23:40;;;;;;;23.20;9.68;;;;;;;7.82;94.64;98979.72;4988480;28;20022;-57
2021/11/18 01:26:09;;;;;;;27.35;10.80;;;;;;;7.89;96.26;98979.59;4989469;28;20041;-56
2021/11/18 01:28:35;;;;;;;28.00;11.85;;;;;;;7.39;97.25;98978.56;4987020;28;20040;-56
2021/11/18 01:31:02;;;;;;;29.48;12.80;;;;;;;7.33;94.84;98976.91;4988035;28;20042;-57
2021/11/18 01:33:27;;;;;;;29.50;11.57;;;;;;;7.76;95.34;98975.47;4989012;28;20399;-60
2021/11/18 01:35:54;;;;;;;32.47;12.85;;;;;;;7.86;92.53;98984.81;4990037;28;20044;-57
2021/11/18 01:38:19;;;;;;;24.13;10.60;;;;;;;7.68;95.65;98987.69;4989474;28;20604;-56
2021/11/18 01:40:49;;;;;;;32.13;12.27;;;;;;;7.62;93.87;98992.97;4989185;28;20061;-58
2021/11/18 01:43:17;;;;;;;32.08;12.60;;;;;;;7.39;96.62;98996.72;4990066;28;20495;-56
2021/11/18 01:45:43;;;;;;;32.10;12.85;;;;;;;7.24;96.85;98992.56;4989409;28;20044;-56
2021/11/18 01:48:08;;;;;;;34.15;12.50;;;;;;;7.53;96.66;98996.53;4988595;28;20030;-56
2021/11/18 01:50:35;;;;;;;29.85;12.55;;;;;;;7.85;95.00;98990.91;4988855;28;20415;-57
2021/11/18 01:53:05;;;;;;;33.80;13.00;;;;;;;7.24;96.62;98996.88;4989804;28;20033;-56
2021/11/18 01:55:31;;;;;;;36.72;12.73;;;;;;;7.51;96.79;98999.16;4989392;28;20037;-58
2021/11/18 01:57:56;;;;;;;36.60;12.80;;;;;;;7.28;97.16;99006.38;4989363;28;20030;-56
2021/11/18 02:00:33;;;;;;;32.60;13.52;;;;;;;7.10;99.07;99013.47;4986883;28;20068;-57
2021/11/18 02:03:00;;;;;;;36.13;13.65;;;;;;;7.26;98.03;99015.88;4983938;28;20196;-56
2021/11/18 02:05:38;;;;;;;34.80;13.00;;;;;;;7.58;96.63;99022.44;4990455;28;20037;-57
2021/11/18 02:08:06;;;;;;;36.50;13.02;;;;;;;7.49;95.65;99016.47;4987476;28;20030;-57
2021/11/18 02:10:37;;;;;;;27.85;10.93;;;;;;;7.93;99.78;99023.72;4990086;28;20041;-57
2021/11/18 02:13:04;;;;;;;36.17;13.05;;;;;;;7.82;93.96;99021.28;4987399;28;20080;-56
2021/11/18 02:15:56;;;;;;;36.88;13.02;;;;;;;7.64;95.36;99024.97;4988801;28;20026;-57
2021/11/18 02:18:25;;;;;;;29.05;11.82;;;;;;;7.93;94.38;99031.53;4989897;28;20026;-58
2021/11/18 02:20:55;;;;;;;27.50;11.25;;;;;;;7.74;97.76;99029.19;4987212;28;20926;-57
2021/11/18 02:23:24;;;;;;;35.28;13.00;;;;;;;7.67;96.81;99035.31;4988500;28;20029;-56
2021/11/18 02:25:52;;;;;;;46.05;14.10;;;;;;;7.83;95.51;99034.25;4986957;28;20042;-56
2021/11/18 02:28:20;;;;;;;39.83;14.10;;;;;;;7.95;94.43;99033.22;4987164;28;20029;-57
2021/11/18 02:30:47;;;;;;;37.22;12.90;;;;;;;8.06;92.60;99030.47;4986999;28;20048;-56
2021/11/18 02:33:14;;;;;;;29.30;11.38;;;;;;;8.16;94.92;99037.25;4988103;28;20611;-56
2021/11/18 02:35:40;;;;;;;32.97;13.10;;;;;;;8.22;93.20;99037.16;4986105;28;20046;-55
2021/11/18 02:38:07;;;;;;;38.75;13.65;;;;;;;7.93;93.00;99036.72;4986969;28;20109;-56
2021/11/18 02:40:33;;;;;;;27.33;11.20;;;;;;;7.96;95.23;99026.25;4987809;28;20038;-56
2021/11/18 02:43:00;;;;;;;38.47;13.40;;;;;;;7.82;95.01;99032.50;4988450;28;20030;-57
2021/11/18 02:45:30;;;;;;;36.55;12.75;;;;;;;7.77;95.08;99034.31;4988817;28;20553;-55
2021/11/18 02:47:56;;;;;;;39.35;13.38;;;;;;;7.91;93.92;99041.94;4989269;28;20037;-56
2021/11/18 02:50:27;;;;;;;37.45;14.30;;;;;;;7.64;97.36;99023.22;4987742;28;20140;-57
2021/11/18 02:52:53;;;;;;;38.15;13.35;;;;;;;7.90;94.06;99030.69;4990318;28;20034;-57
2021/11/18 02:55:26;;;;;;;38.80;13.63;;;;;;;7.68;95.23;99034.44;4986595;28;20030;-55
2021/11/18 02:57:51;;;;;;;;;;;;;;;7.75;97.37;99030.03;4990965;28;20109;-57
2021/11/18 03:00:21;;;;;;;44.20;12.60;;;;;;;7.80;96.84;99023.88;4991764;28;20016;-57
2021/11/18 03:02:47;;;;;;;35.00;11.02;;;;;;;8.01;95.76;99022.72;4993006;28;20022;-56
2021/11/18 03:05:13;;;;;;;41.95;12.73;;;;;;;7.85;95.86;99026.44;4989925;28;20535;-56
2021/11/18 03:07:39;;;;;;;49.47;13.60;;;;;;;7.71;97.44;99029.19;4989798;28;20069;-57
2021/11/18 03:10:09;;;;;;;45.03;14.68;;;;;;;7.67;95.86;99037.91;4991842;28;20022;-57
2021/11/18 03:12:35;;;;;;;50.72;14.27;;;;;;;7.85;95.52;99037.69;4993087;28;20042;-55
2021/11/18 03:15:00;;;;;;;34.22;11.68;;;;;;;8.16;98.36;99037.25;4991952;28;20038;-57
2021/11/18 03:17:26;;;;;;;50.05;15.00;;;;;;;7.89;96.32;99034.16;4990200;28;20041;-57
2021/11/18 03:19:51;;;;;;;49.28;14.48;;;;;;;7.76;97.76;99037.81;4990755;28;20057;-56
2021/11/18 03:22:17;;;;;;;55.17;15.68;;;;;;;8.00;96.15;99030.56;4991265;28;20053;-56
2021/11/18 03:24:43;;;;;;;56.45;15.25;;;;;;;7.72;97.09;99036.13;4992429;28;20022;-57
2021/11/18 03:27:08;;;;;;;34.95;10.35;;;;;;;8.21;97.13;99032.81;4991213;28;20503;-56
2021/11/18 03:29:34;;;;;;;59.83;16.70;;;;;;;8.09;94.41;99036.47;4990763;28;20113;-56
2021/11/18 03:31:59;;;;;;;46.70;14.45;;;;;;;8.09;96.58;99031.28;4990374;28;20038;-56
2021/11/18 03:34:29;;;;;;;43.20;14.27;;;;;;;7.91;98.57;99037.59;4989278;28;20034;-56
2021/11/18 03:36:54;;;;;;;46.08;13.77;;;;;;;7.86;98.65;99036.78;4998076;28;20112;-57
2021/11/18 03:39:20;;;;;;;42.80;13.93;;;;;;;8.14;96.49;99023.41;4992457;28;20832;-56
2021/11/18 03:41:50;;;;;;;41.22;12.48;;;;;;;8.27;100.00;99024.94;4990240;28;20037;-57
2021/11/18 03:44:17;;;;;;;47.78;14.00;;;;;;;8.25;95.69;99029.31;4991018;28;20110;-56
2021/11/18 03:46:46;;;;;;;47.40;15.05;;;;;;;7.83;97.79;99047.22;4989622;28;20049;-56
2021/11/18 03:49:12;;;;;;;46.28;14.38;;;;;;;8.27;98.83;99044.88;4991470;28;20070;-57
2021/11/18 03:51:38;;;;;;;38.28;13.95;;;;;;;8.05;98.59;99045.19;4988366;28;20084;-57
2021/11/18 03:54:06;;;;;;;50.33;15.05;;;;;;;8.05;97.04;99049.53;5000771;28;20053;-57
2021/11/18 03:56:34;;;;;;;46.00;14.80;;;;;;;7.95;99.17;99047.94;4989131;28;20041;-56
2021/11/18 03:59:00;;;;;;;50.55;15.05;;;;;;;8.15;95.08;99051.13;4988155;28;20049;-58
2021/11/18 04:01:26;;;;;;;39.08;12.48;;;;;;;8.28;99.05;99057.84;4996744;28;20076;-56
2021/11/18 04:03:54;;;;;;;56.28;15.30;;;;;;;8.24;95.25;99066.56;4990872;28;20034;-56
2021/11/18 04:06:21;;;;;;;49.30;15.25;;;;;;;7.80;97.88;99062.84;4990071;28;20129;-56
2021/11/18 04:08:46;;;;;;;44.03;14.73;;;;;;;8.14;96.05;99064.97;4988230;28;20058;-57
2021/11/18 04:11:11;;;;;;;50.03;14.70;;;;;;;8.20;94.47;99070.09;4989385;28;20076;-56
2021/11/18 04:13:37;;;;;;;52.88;15.88;;;;;;;8.32;94.38;99069.06;4989901;28;20026;-57
2021/11/18 04:16:03;;;;;;;50.42;15.45;;;;;;;8.04;96.28;99058.22;4990327;28;20038;-56
2021/11/18 04:18:28;;;;;;;56.05;15.50;;;;;;;8.19;94.33;99063.19;4998332;28;20026;-56
2021/11/18 04:20:54;;;;;;;43.00;13.50;;;;;;;8.33;95.66;99069.94;4989784;28;20092;-56
2021/11/18 04:23:22;;;;;;;44.00;14.65;;;;;;;8.00;97.06;99077.31;4989311;28;20179;-56
2021/11/18 04:25:49;;;;;;;37.38;13.40;;;;;;;8.14;96.30;99084.91;4989280;28;20444;-57
2021/11/18 04:28:14;;;;;;;39.22;13.27;;;;;;;8.38;95.50;99078.50;4990063;28;20089;-56
2021/11/18 04:30:45;;;;;;;30.33;11.73;;;;;;;8.54;95.09;99073.97;4989971;28;20049;-56
2021/11/18 04:33:11;;;;;;;36.65;12.02;;;;;;;8.36;93.39;99069.88;4990128;28;20109;-56
2021/11/18 04:35:37;;;;;;;41.63;14.40;;;;;;;8.35;93.55;99073.38;4989420;28;20204;-56
2021/11/18 04:38:03;;;;;;;44.30;14.90;;;;;;;8.13;93.69;99071.06;4990228;28;20117;-57
2021/11/18 04:40:31;;;;;;;45.90;14.80;;;;;;;8.18;94.73;99082.28;4988864;28;20165;-57
2021/11/18 04:42:56;;;;;;;54.53;15.90;;;;;;;7.96;96.00;99092.09;4989730;28;20439;-56
2021/11/18 04:45:22;;;;;;;43.42;14.98;;;;;;;8.25;95.05;99094.31;4988793;28;20038;-56
2021/11/18 04:47:48;;;;;;;45.60;14.50;;;;;;;8.26;95.66;99093.41;4986781;28;20026;-56
2021/11/18 04:50:14;;;;;;;46.53;14.32;;;;;;;8.22;94.44;99094.34;4990096;28;20030;-58
2021/11/18 04:52:41;;;;;;;45.92;14.65;;;;;;;8.40;92.89;99098.44;4988234;28;20041;-56
2021/11/18 04:55:09;;;;;;;36.38;14.27;;;;;;;8.14;96.85;99096.16;4990550;28;20647;-56
2021/11/18 04:57:36;;;;;;;43.50;14.23;;;;;;;8.29;94.05;99090.78;4989441;28;20974;-56
2021/11/18 05:00:07;;;;;;;37.78;13.88;;;;;;;8.38;93.87;99096.72;4990711;28;20026;-58
2021/11/18 05:02:34;;;;;;;37.20;13.30;;;;;;;8.42;92.33;99098.44;4988690;28;20050;-57
2021/11/18 05:04:59;;;;;;;42.13;14.30;;;;;;;8.34;93.14;99097.63;4989881;28;20038;-56
2021/11/18 05:07:24;;;;;;;37.45;14.13;;;;;;;8.30;93.16;99092.47;4988586;28;20043;-56
2021/11/18 05:09:50;;;;;;;41.83;14.50;;;;;;;8.40;93.50;99097.53;4989547;28;20120;-56
2021/11/18 05:12:17;;;;;;;39.90;14.60;;;;;;;8.34;94.77;99092.44;4987484;28;20031;-58
2021/11/18 05:14:42;;;;;;;27.20;11.20;;;;;;;8.43;93.57;99089.75;4988213;28;20036;-57
2021/11/18 05:17:08;;;;;;;39.15;15.30;;;;;;;8.04;95.12;99100.63;4989122;28;20558;-56
2021/11/18 05:19:33;;;;;;;33.35;13.45;;;;;;;8.53;93.43;99101.72;4991455;28;20563;-58
2021/11/18 05:21:59;;;;;;;40.88;15.40;;;;;;;8.38;93.02;99109.69;4988394;28;20038;-57
2021/11/18 05:24:24;;;;;;;36.88;15.40;;;;;;;8.34;93.76;99106.28;4996385;28;20076;-56
2021/11/18 05:26:50;;;;;;;36.00;14.77;;;;;;;8.23;93.60;99101.25;4988883;28;20062;-56
2021/11/18 05:29:15;;;;;;;42.13;15.60;;;;;;;8.26;93.43;99100.34;4989733;28;20030;-56
2021/11/18 05:31:41;;;;;;;38.65;14.60;;;;;;;8.16;94.26;99099.63;4987143;28;20221;-57
2021/11/18 05:34:06;;;;;;;35.75;12.98;;;;;;;8.45;93.05;99100.97;4986857;28;20117;-56
2021/11/18 05:36:32;;;;;;;41.08;15.70;;;;;;;8.12;92.57;99108.31;4988649;28;20045;-57
2021/11/18 05:38:57;;;;;;;38.72;15.18;;;;;;;8.11;94.63;99117.03;4989337;28;20733;-57
2021/11/18 05:41:23;;;;;;;42.53;15.40;;;;;;;8.57;91.83;99116.41;4989593;28;20047;-56
2021/11/18 05:43:50;;;;;;;37.20;14.77;;;;;;;8.41;91.25;99118.31;4988519;28;20057;-57
2021/11/18 05:46:18;;;;;;;41.08;14.20;;;;;;;8.12;93.22;99103.13;4988679;28;20158;-56
2021/11/18 05:48:44;;;;;;;32.88;12.20;;;;;;;8.37;95.78;99082.00;5004896;28;20091;-58
2021/11/18 05:51:13;;;;;;;42.17;16.58;;;;;;;8.16;95.02;99102.22;4987940;28;20085;-57
2021/11/18 05:53:41;;;;;;;30.85;12.45;;;;;;;8.46;94.23;99103.56;4990179;28;20038;-58
2021/11/18 05:56:11;;;;;;;35.38;15.10;;;;;;;8.53;94.56;99106.94;4989110;28;20039;-57
2021/11/18 05:58:37;;;;;;;35.10;13.43;;;;;;;8.53;91.72;99119.94;4988311;28;20085;-57
2021/11/18 06:01:04;;;;;;;36.10;15.35;;;;;;;8.56;90.77;99132.88;4988461;28;20073;-56
2021/11/18 06:03:29;;;;;;;32.55;13.45;;;;;;;8.20;93.81;99127.28;4987710;28;20025;-58
2021/11/18 06:05:55;;;;;;;35.80;14.98;;;;;;;8.13;95.49;99117.00;4993304;28;20041;-57
2021/11/18 06:08:20;;;;;;;36.22;15.35;;;;;;;8.20;94.21;99127.28;4993635;28;20723;-57
2021/11/18 06:10:46;;;;;;;38.58;14.98;;;;;;;8.48;92.10;99122.59;4989947;28;20136;-57
2021/11/18 06:13:12;;;;;;;37.78;14.82;;;;;;;8.21;93.20;99123.78;4991365;28;20030;-57
2021/11/18 06:15:38;;;;;;;38.97;15.88;;;;;;;8.03;92.95;99119.72;4993845;28;20045;-57
2021/11/18 06:18:04;;;;;;;37.50;15.02;;;;;;;8.24;92.97;99128.97;4989984;28;20113;-58
2021/11/18 06:20:30;;;;;;;39.42;16.00;;;;;;;8.33;92.47;99137.53;4990838;28;20030;-58
2021/11/18 06:22:56;;;;;;;36.55;14.98;;;;;;;8.18;94.11;99144.66;4990186;28;20596;-56
2021/11/18 06:25:25;;;;;;;35.22;14.90;;;;;;;8.01;94.07;99147.44;4990562;28;20211;-57
2021/11/18 06:27:51;;;;;;;33.55;13.90;;;;;;;8.36;92.45;99153.06;4991557;28;20045;-57
2021/11/18 06:30:21;;;;;;;31.58;12.20;;;;;;;8.29;96.34;99147.13;4989995;28;20080;-56
2021/11/18 06:32:47;;;;;;;32.90;13.73;;;;;;;8.28;92.88;99148.81;4993803;28;20037;-57
2021/11/18 06:35:14;;;;;;;30.83;12.23;;;;;;;8.51;94.07;99146.81;4995684;28;20029;-55
2021/11/18 06:37:40;;;;;;;10.73;5.15;;;;;;;9.61;100.00;99154.56;4993653;28;20029;-56
2021/11/18 06:40:07;;;;;;;21.52;7.65;;;;;;;10.29;95.91;99163.66;4995654;28;20030;-56
2021/11/18 06:42:32;;;;;;;10.23;4.32;;;;;;;10.67;100.00;99169.81;5003199;28;20051;-57
2021/11/18 06:44:58;;;;;;;25.77;8.93;;;;;;;10.57;92.71;99162.19;4997003;28;20238;-57
2021/11/18 06:47:23;;;;;;;28.98;10.43;;;;;;;11.07;96.69;99167.13;4995257;28;20118;-56
2021/11/18 06:49:49;;;;;;;32.85;11.85;;;;;;;10.55;94.95;99182.25;4996765;28;20030;-57
2021/11/18 06:52:16;;;;;;;33.10;9.50;;;;;;;12.81;100.00;99188.53;4995092;28;20046;-57
2021/11/18 06:54:41;;;;;;;29.92;13.20;;;;;;;11.03;89.64;99173.31;4996815;28;20023;-57
2021/11/18 06:57:07;;;;;;;28.27;12.43;;;;;;;9.92;93.64;99180.88;4995194;28;20049;-57
2021/11/18 06:59:32;;;;;;;22.83;9.27;;;;;;;10.90;99.74;99188.44;4994608;28;20399;-57
2021/11/18 07:01:59;;;;;;;16.77;7.60;;;;;;;10.80;100.00;99187.75;4979508;28;20649;-57
2021/11/18 07:04:25;;;;;;;25.90;11.52;;;;;;;11.38;82.63;99182.91;4993621;28;20032;-56
2021/11/18 07:06:50;;;;;;;25.77;11.73;;;;;;;10.11;87.58;99186.63;4993113;28;20033;-57
2021/11/18 07:09:15;;;;;;;27.55;13.63;;;;;;;9.36;91.33;99191.47;4995822;28;20058;-56
2021/11/18 07:11:41;;;;;;;24.05;12.57;;;;;;;9.23;87.92;99189.97;4994349;28;20574;-57
2021/11/18 07:14:07;;;;;;;20.25;10.77;;;;;;;9.68;95.87;99182.22;4994892;28;20570;-56
2021/11/18 07:16:32;;;;;;;23.73;10.45;;;;;;;9.95;94.07;99187.81;4994061;28;20137;-57
2021/11/18 07:18:59;;;;;;;21.10;10.63;;;;;;;10.48;89.70;99185.88;4996530;28;20030;-57
2021/11/18 07:21:26;;;;;;;25.85;12.65;;;;;;;9.54;88.77;99197.22;4993581;28;20141;-57
2021/11/18 07:23:55;;;;;;;18.88;9.73;;;;;;;10.68;97.59;99197.63;4995937;28;20038;-57
2021/11/18 07:26:21;;;;;;;17.33;8.68;;;;;;;10.14;96.25;99196.13;4993053;28;20070;-55
2021/11/18 07:28:46;;;;;;;12.55;6.85;;;;;;;10.92;89.95;99199.69;4993716;28;20133;-57
2021/11/18 07:31:13;;;;;;;15.93;5.72;;;;;;;11.26;97.34;99198.88;4993701;28;20076;-56
2021/11/18 07:33:39;;;;;;;10.73;5.85;;;;;;;12.43;79.57;99200.16;4993501;28;20043;-57
2021/11/18 07:36:05;;;;;;;12.00;5.30;;;;;;;11.89;89.54;99199.00;4993540;28;20042;-56
2021/11/18 07:38:32;;;;;;;10.75;5.20;;;;;;;11.84;90.83;99203.50;4991791;28;20396;-56
2021/11/18 07:40:58;;;;;;;10.43;4.97;;;;;;;12.51;92.43;99209.47;4994198;28;20962;-56
2021/11/18 07:43:28;;;;;;;19.33;10.15;;;;;;;10.43;81.90;99208.59;4993555;28;20034;-58
2021/11/18 07:45:58;;;;;;;13.85;7.50;;;;;;;11.67;86.76;99215.28;4992245;28;20456;-58
2021/11/18 07:48:23;;;;;;;13.57;7.28;;;;;;;11.37;81.71;99217.75;4994964;28;20825;-56
2021/11/18 07:50:49;;;;;;;15.82;7.05;;;;;;;12.88;87.76;99220.59;4992573;28;20185;-57
2021/11/18 07:53:15;;;;;;;19.73;9.25;;;;;;;11.77;82.94;99219.34;4994757;28;20030;-57
2021/11/18 07:55:42;;;;;;;15.70;8.40;;;;;;;12.13;79.84;99221.91;4995565;28;20045;-56
2021/11/18 07:58:08;;;;;;;11.77;6.95;;;;;;;12.50;76.58;99227.84;4992877;28;20058;-57
2021/11/18 08:00:33;;;;;;;9.45;4.60;;;;;;;13.62;78.59;99240.09;4993309;28;20095;-57
2021/11/18 08:03:05;;;;;;;13.18;7.30;;;;;;;11.77;79.73;99236.78;4992268;28;20042;-57
2021/11/18 08:05:31;;;;;;;10.30;5.13;;;;;;;13.37;87.88;99242.66;4989424;28;20046;-57
2021/11/18 08:07:56;;;;;;;20.48;11.32;;;;;;;12.42;77.48;99242.91;4996023;28;20038;-56
2021/11/18 08:10:22;;;;;;;12.38;5.93;;;;;;;12.44;83.75;99241.09;4993151;28;20026;-58
2021/11/18 08:12:47;;;;;;;16.88;8.75;;;;;;;12.08;85.82;99231.63;4992754;28;20116;-57
2021/11/18 08:15:14;;;;;;;18.67;9.48;;;;;;;12.34;76.11;99230.03;4994796;28;20026;-56
2021/11/18 08:17:41;;;;;;;11.65;5.72;;;;;;;12.30;88.13;99233.66;4992944;28;20033;-57
2021/11/18 08:20:08;;;;;;;14.15;7.55;;;;;;;11.75;82.28;99242.06;4992691;28;20033;-57
2021/11/18 08:22:33;;;;;;;14.20;7.82;;;;;;;13.71;82.81;99248.53;4993067;28;20038;-56
2021/11/18 08:24:59;;;;;;;15.55;7.40;;;;;;;14.52;75.20;99244.78;4994413;28;20046;-57
2021/11/18 08:27:24;;;;;;;9.35;4.43;;;;;;;13.56;85.07;99245.50;4991628;28;20403;-57
2021/11/18 08:29:49;;;;;;;12.98;6.57;;;;;;;12.50;83.80;99240.94;4994268;28;20514;-56
2021/11/18 08:32:15;;;;;;;19.52;11.10;;;;;;;12.19;76.59;99240.94;4990228;28;20403;-58
2021/11/18 08:34:42;;;;;;;19.20;10.43;;;;;;;11.51;73.70;99238.31;4990479;28;20049;-56
2021/11/18 08:37:08;;;;;;;8.18;5.20;;;;;;;13.63;82.40;99241.78;4990239;28;20798;-56
2021/11/18 08:39:34;;;;;;;11.63;6.60;;;;;;;12.86;70.39;99248.59;4991620;28;20037;-56
2021/11/18 08:42:03;;;;;;;23.42;12.77;;;;;;;10.99;75.12;99260.44;4990148;28;20504;-56
2021/11/18 08:44:33;;;;;;;23.27;12.32;;;;;;;10.97;78.33;99255.28;5005452;28;20026;-56
2021/11/18 08:46:59;;;;;;;14.68;7.90;;;;;;;11.23;81.62;99253.81;4992560;28;20909;-56
2021/11/18 08:49:24;;;;;;;22.00;10.73;;;;;;;11.13;77.02;99254.91;4991083;28;20036;-57
2021/11/18 08:51:52;;;;;;;10.88;5.63;;;;;;;11.74;81.46;99250.81;4991721;28;20033;-56
2021/11/18 08:54:22;;;;;;;12.63;6.40;;;;;;;11.92;83.80;99254.72;4992841;28;20081;-57
2021/11/18 08:56:50;;;;;;;18.77;10.68;;;;;;;11.21;78.32;99255.56;4989073;28;20034;-57
2021/11/18 08:59:16;;;;;;;12.70;7.10;;;;;;;11.95;76.07;99259.03;4990930;28;20022;-56
2021/11/18 09:01:49;;;;;;;10.25;5.78;;;;;;;12.78;80.65;99256.69;4991945;28;20093;-57
2021/11/18 09:04:18;;;;;;;22.08;11.50;;;;;;;10.64;76.63;99258.59;4991744;28;20026;-56
2021/11/18 09:06:46;;;;;;;17.15;11.20;;;;;;;10.29;77.83;99263.59;4990849;28;20770;-57
2021/11/18 09:09:13;;;;;;;21.00;12.35;;;;;;;10.74;78.16;99265.34;4990673;28;20022;-56
2021/11/18 09:11:40;;;;;;;18.25;10.38;;;;;;;10.67;81.96;99263.75;4990400;28;20092;-56
2021/11/18 09:14:06;;;;;;;29.00;15.15;;;;;;;10.38;77.27;99273.91;4991214;28;20379;-57
2021/11/18 09:16:34;;;;;;;14.00;8.13;;;;;;;10.12;81.00;99274.38;4990544;28;20403;-56
2021/11/18 09:19:02;;;;;;;26.80;13.85;;;;;;;10.02;78.81;99288.47;4989105;28;20793;-56
2021/11/18 09:21:28;;;;;;;12.80;7.38;;;;;;;11.13;81.50;99279.25;4988834;28;20419;-57
2021/11/18 09:24:03;;;;;;;17.15;9.68;;;;;;;11.06;77.22;99287.28;4990369;28;20033;-57
2021/11/18 09:26:31;;;;;;;15.30;8.20;;;;;;;10.57;82.86;99297.88;4989564;28;20049;-56
2021/11/18 09:28:59;;;;;;;15.07;8.18;;;;;;;10.91;80.38;99298.91;4990644;28;20026;-56
2021/11/18 09:31:25;;;;;;;18.55;10.95;;;;;;;10.70;83.23;99305.47;4991540;28;20046;-56
2021/11/18 09:33:52;;;;;;;27.38;15.40;;;;;;;10.37;76.91;99305.25;4989572;28;20034;-57
2021/11/18 09:36:20;;;;;;;27.67;15.77;;;;;;;9.97;79.59;99313.75;4990369;28;20038;-56
2021/11/18 09:38:48;;;;;;;17.65;9.43;;;;;;;10.33;81.91;99316.59;4990081;28;20026;-57
2021/11/18 09:41:16;;;;;;;12.63;7.30;;;;;;;11.04;80.06;99309.94;4989788;28;20050;-56
2021/11/18 09:44:19;;;;;;;19.98;11.27;;;;;;;10.44;78.53;99303.34;4987877;28;20077;-56
2021/11/18 09:46:53;;;;;;;14.98;8.52;;;;;;;10.33;81.14;99319.19;4990106;28;20034;-56
2021/11/18 09:49:55;;;;;;;17.92;9.48;;;;;;;10.38;79.03;99310.44;4989426;28;20042;-56
2021/11/18 09:52:41;;;;;;;;;;;;;;;9.95;80.59;99310.31;4990708;28;20042;-56
2021/11/18 09:55:12;;;;;;;23.67;12.68;;;;;;;9.76;82.04;99308.03;4989423;28;20550;-56
2021/11/18 09:57:49;;;;;;;11.30;5.83;;;;;;;12.00;80.30;99309.41;4998729;28;20026;-57
2021/11/18 10:00:26;;;;;;;23.17;12.02;;;;;;;11.96;71.98;99297.31;4989547;28;20784;-57
2021/11/18 10:02:57;;;;;;;15.38;8.32;;;;;;;11.87;76.06;99292.28;4990946;28;20105;-57
2021/11/18 10:05:31;;;;;;;12.10;7.00;;;;;;;12.29;74.21;99284.25;4988577;28;20046;-56
2021/11/18 10:08:01;;;;;;;23.75;13.27;;;;;;;11.24;74.72;99281.63;4995407;28;20530;-56
2021/11/18 10:10:39;;;;;;;15.07;9.30;;;;;;;11.50;73.82;99288.00;4993072;28;20042;-57
2021/11/18 10:13:07;;;;;;;26.40;13.63;;;;;;;11.75;70.93;99283.88;4994058;28;20037;-56
2021/11/18 10:15:41;;;;;;;18.58;9.68;;;;;;;12.30;73.82;99301.69;5003869;28;20049;-57
2021/11/18 10:18:18;;;;;;;18.35;9.65;;;;;;;12.47;69.59;99304.66;4994902;28;20046;-56
2021/11/18 10:20:46;;;;;;;10.07;6.25;;;;;;;11.12;75.22;99305.41;5006742;28;20730;-55
2021/11/18 10:23:16;;;;;;;12.55;7.60;;;;;;;12.12;72.92;99309.09;5008143;28;20509;-55
2021/11/18 10:25:49;;;;;;;15.07;9.27;;;;;;;12.35;72.17;99294.53;4991200;28;20056;-56
2021/11/18 10:28:21;;;;;;;15.00;8.68;;;;;;;11.56;72.17;99300.91;4997390;28;20546;-55
2021/11/18 10:30:54;;;;;;;17.00;8.65;;;;;;;12.46;71.84;99297.75;4993189;28;20117;-56
2021/11/18 10:33:40;;;;;;;18.67;8.77;;;;;;;12.95;72.63;99299.84;4993884;28;20104;-56
2021/11/18 10:36:18;;;;;;;18.15;9.20;;;;;;;12.11;68.46;99290.84;4991136;28;20049;-56
2021/11/18 10:39:01;;;;;;;15.27;8.35;;;;;;;12.15;69.84;99301.19;4992061;28;20018;-55
2021/11/18 10:41:30;;;;;;;9.48;5.65;;;;;;;11.67;69.95;99296.28;4992726;28;20069;-55
2021/11/18 10:44:17;;;;;;;10.65;5.20;;;;;;;13.47;68.28;99295.63;4994787;28;20032;-55
2021/11/18 10:46:57;;;;;;;8.70;5.20;;;;;;;14.77;70.38;99290.25;4991152;28;20038;-55
2021/11/18 10:49:51;;;;;;;11.70;7.30;;;;;;;12.54;68.18;99282.66;4993128;28;20503;-55
2021/11/18 10:52:26;;;;;;;14.43;8.10;;;;;;;11.92;71.27;99287.84;4992712;28;20162;-56
2021/11/18 10:55:05;;;;;;;15.15;8.88;;;;;;;12.62;72.75;99274.59;4993314;28;20549;-56
2021/11/18 10:57:32;;;;;;;12.10;7.15;;;;;;;12.88;68.04;99281.69;4995837;28;20038;-55
2021/11/18 11:00:41;;;;;;;8.43;4.45;;;;;;;13.82;71.16;99283.09;4994323;28;20029;-56
2021/11/18 11:03:26;;;;;;;8.63;5.65;;;;;;;13.39;64.08;99289.78;5001069;28;20484;-55
2021/11/18 11:06:10;;;;;;;8.10;5.13;;;;;;;13.36;68.44;99289.88;4993131;28;20046;-56
2021/11/18 11:08:38;;;;;;;7.32;4.15;;;;;;;15.56;70.79;99289.81;4992042;28;20065;-55
2021/11/18 11:11:29;;;;;;;11.75;7.05;;;;;;;12.85;68.12;99273.06;4991936;28;20117;-56
2021/11/18 11:14:09;;;;;;;10.48;6.15;;;;;;;13.87;67.57;99253.19;4994458;28;20084;-57
2021/11/18 11:16:49;;;;;;;10.40;5.38;;;;;;;12.20;70.92;99253.97;4991942;28;20042;-56
2021/11/18 11:19:35;;;;;;;12.00;6.82;;;;;;;12.93;70.21;99261.44;4991450;28;20033;-57
2021/11/18 11:22:40;;;;;;;7.22;4.30;;;;;;;13.81;65.21;99255.19;4991227;28;20481;-55
2021/11/18 11:25:06;;;;;;;12.57;5.38;;;;;;;13.41;67.07;99252.13;4990923;28;20045;-56
2021/11/18 11:27:37;;;;;;;8.07;4.57;;;;;;;13.49;68.47;99260.59;4993439;28;20091;-55
2021/11/18 11:30:29;;;;;;;6.97;4.53;;;;;;;15.43;67.21;99245.63;4993617;28;20041;-57